createdAt,value
2022-11-24T00:01:08.921Z,10.00
2022-11-24T00:03:36.288Z,10.18
2022-11-24T00:06:11.044Z,8.05
2022-11-24T00:08:38.954Z,7.68
2022-11-24T00:11:07.425Z,10.25
2022-11-24T00:13:34.662Z,8.32
2022-11-24T00:16:21.192Z,7.35
2022-11-24T00:18:49.401Z,9.60
2022-11-24T00:21:17.152Z,9.45
2022-11-24T00:23:44.570Z,9.77
2022-11-24T00:26:32.438Z,9.23
2022-11-24T00:29:04.360Z,8.32
2022-11-24T00:34:12.721Z,10.52
2022-11-24T00:36:40.171Z,8.10
2022-11-24T00:39:10.390Z,10.50
2022-11-24T00:41:37.683Z,11.65
2022-11-24T00:44:04.941Z,13.68
2022-11-24T00:46:31.960Z,11.43
2022-11-24T00:49:00.550Z,12.23
2022-11-24T00:51:28.134Z,9.90
2022-11-24T00:53:56.485Z,11.48
2022-11-24T00:56:24.612Z,12.23
2022-11-24T00:58:51.884Z,11.38
2022-11-24T01:01:23.531Z,10.45
2022-11-24T01:03:50.595Z,11.63
2022-11-24T01:06:22.115Z,13.70
2022-11-24T01:08:49.118Z,10.00
2022-11-24T01:11:17.049Z,10.52
2022-11-24T01:13:45.214Z,10.70
2022-11-24T01:16:24.035Z,12.18
2022-11-24T01:18:51.116Z,12.65
2022-11-24T01:21:18.423Z,10.73
2022-11-24T01:23:45.442Z,9.27
2022-11-24T01:26:14.837Z,9.18
2022-11-24T01:28:46.575Z,9.77
2022-11-24T01:31:14.900Z,6.50
2022-11-24T01:33:41.852Z,9.50
2022-11-24T01:36:08.917Z,7.43
2022-11-24T01:38:35.910Z,7.20
2022-11-24T01:41:06.708Z,7.78
2022-11-24T01:43:33.911Z,9.02
2022-11-24T01:46:23.686Z,9.15
2022-11-24T01:49:11.999Z,10.35
2022-11-24T01:51:45.659Z,8.75
2022-11-24T01:54:15.870Z,7.85
2022-11-24T01:56:43.791Z,9.70
2022-11-24T01:59:11.642Z,11.27
2022-11-24T02:01:38.873Z,12.30
2022-11-24T02:04:08.269Z,11.77
2022-11-24T02:06:35.523Z,6.68
2022-11-24T02:09:15.206Z,9.90
2022-11-24T02:11:42.621Z,8.48
2022-11-24T02:14:10.727Z,8.32
2022-11-24T02:16:37.829Z,9.73
2022-11-24T02:19:07.976Z,8.35
2022-11-24T02:21:34.911Z,7.50
2022-11-24T02:24:23.472Z,9.90
2022-11-24T02:26:52.184Z,9.90
2022-11-24T02:29:20.716Z,7.30
2022-11-24T02:31:57.165Z,7.75
2022-11-24T02:34:24.133Z,7.63
2022-11-24T02:36:51.132Z,10.40
2022-11-24T02:39:18.153Z,9.35
2022-11-24T02:41:52.410Z,9.57
2022-11-24T02:44:19.985Z,9.43
2022-11-24T02:46:46.901Z,11.07
2022-11-24T02:49:13.972Z,11.93
2022-11-24T02:51:40.940Z,12.68
2022-11-24T02:54:08.046Z,12.15
2022-11-24T02:56:35.005Z,10.05
2022-11-24T02:59:02.368Z,8.07
2022-11-24T03:01:32.202Z,11.32
2022-11-24T03:04:01.694Z,9.48
2022-11-24T03:06:28.947Z,11.00
2022-11-24T03:08:56.016Z,16.05
2022-11-24T03:11:22.965Z,11.50
2022-11-24T03:13:50.197Z,14.63
2022-11-24T03:16:17.282Z,13.98
2022-11-24T03:18:44.279Z,13.13
2022-11-24T03:21:11.221Z,15.07
2022-11-24T03:23:38.195Z,13.13
2022-11-24T03:26:13.387Z,13.10
2022-11-24T03:28:40.592Z,9.48
2022-11-24T03:31:08.339Z,12.30
2022-11-24T03:33:35.804Z,10.35
2022-11-24T03:36:03.788Z,13.63
2022-11-24T03:38:30.787Z,14.45
2022-11-24T03:40:57.705Z,13.35
2022-11-24T03:43:24.665Z,12.07
2022-11-24T03:45:51.639Z,13.48
2022-11-24T03:48:18.823Z,13.23
2022-11-24T03:50:56.208Z,13.93
2022-11-24T03:53:23.471Z,12.82
2022-11-24T03:55:50.553Z,14.20
2022-11-24T03:58:17.718Z,13.25
2022-11-24T04:00:44.661Z,15.00
2022-11-24T04:03:11.728Z,12.48
2022-11-24T04:05:38.674Z,15.80
2022-11-24T04:08:06.007Z,15.05
2022-11-24T04:10:34.339Z,13.23
2022-11-24T04:13:01.435Z,19.25
2022-11-24T04:15:28.487Z,14.60
2022-11-24T04:17:55.801Z,13.55
2022-11-24T04:20:23.088Z,13.60
2022-11-24T04:22:50.853Z,14.18
2022-11-24T04:25:17.948Z,13.45
2022-11-24T04:27:45.524Z,14.50
2022-11-24T04:30:12.788Z,14.15
2022-11-24T04:32:40.000Z,12.80
2022-11-24T04:35:07.420Z,15.18
2022-11-24T04:37:34.535Z,15.50
2022-11-24T04:40:01.461Z,18.10
2022-11-24T04:42:28.421Z,11.57
2022-11-24T04:44:55.721Z,14.68
2022-11-24T04:47:23.888Z,15.23
2022-11-24T04:49:51.284Z,10.80
2022-11-24T04:52:19.658Z,17.33
2022-11-24T04:54:47.646Z,13.38
2022-11-24T04:57:19.215Z,15.70
2022-11-24T04:59:46.150Z,15.18
2022-11-24T05:02:13.566Z,12.20
2022-11-24T05:04:40.840Z,11.80
2022-11-24T05:07:07.939Z,16.90
2022-11-24T05:09:59.317Z,15.32
2022-11-24T05:12:31.228Z,16.02
2022-11-24T05:15:02.023Z,16.17
2022-11-24T05:17:30.673Z,12.98
2022-11-24T05:19:57.924Z,13.05
2022-11-24T05:22:25.168Z,13.23
2022-11-24T05:24:52.182Z,14.93
2022-11-24T05:27:19.181Z,13.90
2022-11-24T05:29:46.104Z,19.92
2022-11-24T05:32:13.141Z,15.80
2022-11-24T05:34:40.098Z,16.63
2022-11-24T05:37:07.040Z,15.07
2022-11-24T05:39:34.912Z,20.10
2022-11-24T05:42:22.432Z,14.52
2022-11-24T05:44:49.390Z,15.13
2022-11-24T05:47:16.454Z,15.95
2022-11-24T05:49:43.481Z,13.50
2022-11-24T05:52:10.809Z,14.82
2022-11-24T05:54:37.791Z,14.25
2022-11-24T05:57:04.906Z,13.60
2022-11-24T05:59:32.075Z,12.75
2022-11-24T06:01:59.190Z,13.32
2022-11-24T06:04:26.268Z,14.45
2022-11-24T06:06:53.222Z,11.25
2022-11-24T06:09:20.207Z,14.68
2022-11-24T06:11:48.225Z,14.52
2022-11-24T06:14:15.167Z,13.65
2022-11-24T06:16:42.161Z,15.50
2022-11-24T06:19:10.569Z,14.55
2022-11-24T06:21:37.585Z,13.93
2022-11-24T06:24:05.371Z,14.85
2022-11-24T06:26:32.519Z,16.73
2022-11-24T06:28:59.851Z,19.90
2022-11-24T06:31:26.848Z,19.63
2022-11-24T06:33:53.899Z,16.55
2022-11-24T06:36:21.042Z,15.45
2022-11-24T06:38:47.948Z,16.85
2022-11-24T06:41:16.170Z,17.13
2022-11-24T06:43:43.225Z,15.27
2022-11-24T06:46:10.465Z,17.35
2022-11-24T06:48:37.641Z,17.10
2022-11-24T06:51:08.907Z,18.77
2022-11-24T06:53:39.605Z,19.15
2022-11-24T06:56:13.755Z,17.10
2022-11-24T06:58:44.289Z,17.15
2022-11-24T07:01:24.773Z,17.67
2022-11-24T07:03:52.063Z,17.35
2022-11-24T07:06:21.877Z,18.10
2022-11-24T07:08:48.969Z,14.68
2022-11-24T07:11:18.352Z,14.48
2022-11-24T07:13:45.677Z,18.23
2022-11-24T07:16:18.438Z,19.25
2022-11-24T07:18:46.744Z,14.70
2022-11-24T07:21:14.940Z,17.33
2022-11-24T07:23:42.066Z,19.95
2022-11-24T07:26:09.171Z,16.20
2022-11-24T07:28:36.943Z,15.48
2022-11-24T07:31:11.783Z,20.30
2022-11-24T07:33:38.762Z,19.95
2022-11-24T07:36:06.913Z,17.00
2022-11-24T07:38:33.968Z,19.90
2022-11-24T07:41:02.322Z,11.85
2022-11-24T07:43:30.678Z,15.57
2022-11-24T07:45:58.270Z,16.98
2022-11-24T07:48:25.232Z,17.55
2022-11-24T07:50:55.766Z,18.98
2022-11-24T07:53:23.528Z,17.52
2022-11-24T07:55:58.191Z,19.30
2022-11-24T07:58:30.323Z,15.35
2022-11-24T08:00:59.362Z,15.60
2022-11-24T08:03:26.535Z,17.27
2022-11-24T08:08:45.023Z,15.80
2022-11-24T08:11:16.214Z,17.60
2022-11-24T08:13:43.400Z,13.80
2022-11-24T08:16:15.331Z,19.38
2022-11-24T08:18:42.706Z,15.10
2022-11-24T08:21:13.655Z,20.88
2022-11-24T08:23:40.961Z,17.73
2022-11-24T08:26:10.841Z,20.05
2022-11-24T08:28:38.340Z,16.58
2022-11-24T08:31:06.794Z,21.63
2022-11-24T08:33:33.840Z,22.33
2022-11-24T08:36:05.584Z,14.57
2022-11-24T08:38:32.685Z,20.70
2022-11-24T08:41:08.288Z,15.60
2022-11-24T08:43:35.660Z,18.48
2022-11-24T08:46:03.977Z,20.52
2022-11-24T08:48:30.981Z,13.27
2022-11-24T08:50:58.382Z,18.02
2022-11-24T08:53:25.665Z,18.85
2022-11-24T08:55:52.697Z,19.13
2022-11-24T08:58:19.732Z,18.13
2022-11-24T09:00:46.727Z,20.75
2022-11-24T09:03:14.069Z,19.33
2022-11-24T09:05:51.868Z,20.85
2022-11-24T09:08:19.706Z,18.45
2022-11-24T09:10:46.872Z,19.30
2022-11-24T09:13:14.046Z,16.58
2022-11-24T09:15:41.179Z,18.88
2022-11-24T09:18:08.130Z,15.45
2022-11-24T09:20:35.119Z,22.23
2022-11-24T09:23:02.180Z,19.13
2022-11-24T09:25:29.211Z,17.40
2022-11-24T09:27:57.235Z,21.15
2022-11-24T09:30:24.333Z,21.63
2022-11-24T09:32:51.308Z,22.77
2022-11-24T09:35:18.328Z,16.90
2022-11-24T09:37:45.799Z,17.52
2022-11-24T09:40:14.281Z,19.98
2022-11-24T09:43:03.401Z,16.10
2022-11-24T09:46:05.099Z,21.77
2022-11-24T09:51:22.473Z,17.27
2022-11-24T09:54:02.985Z,24.08
2022-11-24T09:56:32.470Z,21.52
2022-11-24T09:59:21.397Z,22.38
2022-11-24T10:01:48.734Z,21.30
2022-11-24T10:04:27.050Z,23.98
2022-11-24T10:07:16.082Z,21.33
2022-11-24T10:10:24.265Z,20.52
2022-11-24T10:13:13.475Z,20.90
2022-11-24T10:16:13.962Z,22.70
2022-11-24T10:18:52.146Z,19.92
2022-11-24T10:21:38.651Z,22.05
2022-11-24T10:24:24.277Z,24.98
2022-11-24T10:26:52.974Z,22.10
2022-11-24T10:29:42.085Z,21.92
2022-11-24T10:32:22.441Z,26.75
2022-11-24T10:34:50.695Z,26.38
2022-11-24T10:37:47.307Z,25.70
2022-11-24T10:43:23.068Z,22.98
2022-11-24T10:45:50.092Z,25.23
2022-11-24T10:48:27.575Z,22.27
2022-11-24T10:50:57.014Z,26.38
2022-11-24T10:53:28.830Z,29.45
2022-11-24T10:55:56.089Z,26.88
2022-11-24T10:58:37.730Z,23.88
2022-11-24T11:01:14.365Z,20.27
2022-11-24T11:03:55.136Z,26.70
2022-11-24T11:06:22.994Z,24.15
2022-11-24T11:08:50.318Z,26.65
2022-11-24T11:11:22.013Z,25.38
2022-11-24T11:14:04.376Z,22.98
2022-11-24T11:16:37.539Z,24.02
2022-11-24T11:19:25.859Z,22.17
2022-11-24T11:22:04.418Z,18.67
2022-11-24T11:24:31.387Z,23.38
2022-11-24T11:27:19.535Z,20.25
2022-11-24T11:35:20.718Z,24.73
2022-11-24T11:37:48.655Z,20.15
2022-11-24T11:40:20.900Z,23.15
2022-11-24T11:43:05.219Z,25.00
2022-11-24T11:45:36.289Z,19.13
2022-11-24T11:48:09.994Z,20.58
2022-11-24T11:51:20.958Z,18.55
2022-11-24T11:53:50.011Z,18.83
2022-11-24T11:56:20.016Z,55.80
2022-11-24T11:59:15.764Z,48.67
2022-11-24T12:01:53.772Z,30.48
2022-11-24T12:04:48.875Z,20.30
2022-11-24T12:07:37.771Z,18.63
2022-11-24T12:10:25.367Z,18.92
2022-11-24T12:13:10.943Z,23.85
2022-11-24T12:15:50.386Z,15.45
2022-11-24T12:21:41.815Z,22.50
2022-11-24T12:24:40.541Z,19.00
2022-11-24T12:27:31.750Z,20.05
2022-11-24T12:30:12.410Z,15.70
2022-11-24T12:33:09.662Z,15.50
2022-11-24T12:35:43.858Z,18.15
2022-11-24T12:38:21.454Z,20.67
2022-11-24T12:41:18.072Z,19.35
2022-11-24T12:43:53.917Z,18.23
2022-11-24T12:46:58.737Z,20.05
2022-11-24T12:49:42.746Z,19.85
2022-11-24T12:52:18.601Z,19.05
2022-11-24T12:54:45.486Z,18.50
2022-11-24T12:57:23.938Z,21.58
2022-11-24T12:59:55.734Z,16.30
2022-11-24T13:05:15.554Z,19.92
2022-11-24T13:07:50.183Z,24.23
2022-11-24T13:10:54.767Z,15.50
2022-11-24T13:13:19.355Z,19.83
2022-11-24T13:18:57.067Z,18.73
2022-11-24T13:21:43.013Z,15.07
2022-11-24T13:24:20.069Z,24.15
2022-11-24T13:26:49.156Z,16.23
2022-11-24T13:29:28.362Z,19.77
2022-11-24T13:32:17.673Z,19.40
2022-11-24T13:34:48.472Z,16.85
2022-11-24T13:37:34.593Z,15.50
2022-11-24T13:40:13.538Z,16.73
2022-11-24T13:43:13.088Z,21.08
2022-11-24T13:45:40.663Z,18.00
2022-11-24T13:48:20.356Z,51.95
2022-11-24T13:50:51.004Z,17.80
2022-11-24T13:53:34.836Z,18.77
2022-11-24T13:56:14.069Z,22.23
2022-11-24T13:58:45.314Z,17.08
2022-11-24T14:01:20.763Z,17.73
2022-11-24T14:04:31.538Z,20.33
2022-11-24T14:07:08.353Z,19.27
2022-11-24T14:09:44.886Z,18.63
2022-11-24T14:12:20.222Z,17.45
2022-11-24T14:14:48.738Z,19.35
2022-11-24T14:17:18.738Z,18.00
2022-11-24T14:19:47.627Z,13.13
2022-11-24T14:22:36.831Z,14.23
2022-11-24T14:25:04.113Z,20.88
2022-11-24T14:27:40.223Z,15.80
2022-11-24T14:30:10.437Z,17.52
2022-11-24T14:32:40.347Z,17.63
2022-11-24T14:35:35.061Z,18.73
2022-11-24T14:38:03.238Z,18.83
2022-11-24T14:40:40.607Z,18.42
2022-11-24T14:43:17.594Z,22.83
2022-11-24T14:46:01.630Z,16.65
2022-11-24T14:48:52.678Z,16.23
2022-11-24T14:51:33.139Z,18.30
2022-11-24T14:54:07.796Z,17.33
2022-11-24T14:56:36.209Z,16.92
2022-11-24T14:59:03.358Z,17.77
2022-11-24T15:01:34.368Z,16.95
2022-11-24T15:07:05.152Z,19.48
2022-11-24T15:09:39.895Z,14.30
2022-11-24T15:12:17.730Z,15.50
2022-11-24T15:14:51.582Z,16.38
2022-11-24T15:17:26.825Z,19.27
2022-11-24T15:20:10.673Z,18.55
2022-11-24T15:22:42.157Z,14.88
2022-11-24T15:25:26.606Z,17.67
2022-11-24T15:27:53.617Z,19.15
2022-11-24T15:30:20.718Z,19.23
2022-11-24T15:32:51.401Z,15.60
2022-11-24T15:35:18.396Z,17.15
2022-11-24T15:37:45.356Z,17.38
2022-11-24T15:40:12.858Z,16.15
2022-11-24T15:42:40.100Z,15.30
2022-11-24T15:45:07.687Z,16.55
2022-11-24T15:47:34.721Z,12.98
2022-11-24T15:50:01.792Z,14.57
2022-11-24T15:52:28.701Z,20.13
2022-11-24T15:54:55.748Z,17.27
2022-11-24T15:57:22.835Z,16.23
2022-11-24T15:59:49.872Z,15.05
2022-11-24T16:02:16.903Z,15.88
2022-11-24T16:04:44.095Z,15.65
2022-11-24T16:07:14.147Z,15.90
2022-11-24T16:09:41.352Z,15.27
2022-11-24T16:12:08.559Z,13.65
2022-11-24T16:14:36.241Z,13.00
2022-11-24T16:17:03.514Z,12.95
2022-11-24T16:19:30.551Z,12.25
2022-11-24T16:21:57.486Z,13.60
2022-11-24T16:24:24.461Z,13.32
2022-11-24T16:26:51.421Z,9.48
2022-11-24T16:29:21.082Z,12.13
2022-11-24T16:31:48.368Z,9.35
2022-11-24T16:34:15.726Z,9.02
2022-11-24T16:36:42.712Z,7.18
2022-11-24T16:39:09.732Z,7.15
2022-11-24T16:41:36.762Z,7.35
2022-11-24T16:44:04.038Z,7.95
2022-11-24T16:46:31.010Z,7.95
2022-11-24T16:49:00.309Z,9.93
2022-11-24T16:51:32.998Z,8.18
2022-11-24T16:54:02.097Z,6.05
2022-11-24T16:56:29.146Z,5.18
2022-11-24T16:58:56.119Z,6.70
2022-11-24T17:01:23.230Z,5.70
2022-11-24T17:03:50.282Z,6.00
2022-11-24T17:06:17.462Z,6.63
2022-11-24T17:08:45.682Z,6.50
2022-11-24T17:11:12.556Z,6.55
2022-11-24T17:13:39.690Z,7.07
2022-11-24T17:16:08.319Z,7.70
2022-11-24T17:18:35.355Z,7.70
2022-11-24T17:21:07.654Z,8.30
2022-11-24T17:23:36.362Z,7.22
2022-11-24T17:26:04.048Z,9.32
2022-11-24T17:28:31.033Z,8.23
2022-11-24T17:30:58.155Z,10.48
2022-11-24T17:33:25.410Z,9.45
2022-11-24T17:35:52.373Z,11.65
2022-11-24T17:38:19.314Z,10.20
2022-11-24T17:40:47.886Z,9.90
2022-11-24T17:43:14.807Z,8.77
2022-11-24T17:45:41.849Z,12.52
2022-11-24T17:48:08.853Z,8.95
2022-11-24T17:50:35.769Z,12.02
2022-11-24T17:53:02.933Z,10.73
2022-11-24T17:55:30.020Z,11.77
2022-11-24T17:57:57.100Z,11.95
2022-11-24T18:00:24.251Z,9.10
2022-11-24T18:02:51.269Z,15.45
2022-11-24T18:05:18.293Z,15.35
2022-11-24T18:07:45.318Z,11.88
2022-11-24T18:10:12.323Z,12.73
2022-11-24T18:12:39.254Z,13.90
2022-11-24T18:15:07.032Z,14.60
2022-11-24T18:17:34.098Z,13.48
2022-11-24T18:20:01.206Z,14.00
2022-11-24T18:23:04.586Z,14.52
2022-11-24T18:25:15.466Z,12.15
2022-11-24T18:27:42.418Z,12.65
2022-11-24T18:30:09.874Z,14.75
2022-11-24T18:32:36.791Z,14.13
2022-11-24T18:35:03.851Z,15.45
2022-11-24T18:37:33.108Z,12.57
2022-11-24T18:40:00.305Z,18.05
2022-11-24T18:42:28.346Z,16.48
2022-11-24T18:44:57.163Z,16.75
2022-11-24T18:47:24.372Z,15.43
2022-11-24T18:49:51.365Z,18.55
2022-11-24T18:52:18.443Z,18.00
2022-11-24T18:54:45.404Z,15.82
2022-11-24T18:57:12.401Z,18.38
2022-11-24T18:59:39.347Z,17.95
2022-11-24T19:02:06.534Z,12.20
2022-11-24T19:04:33.788Z,16.05
2022-11-24T19:07:00.876Z,15.20
2022-11-24T19:09:27.853Z,19.52
2022-11-24T19:11:54.774Z,15.93
2022-11-24T19:14:21.711Z,15.43
2022-11-24T19:16:48.724Z,15.35
2022-11-24T19:19:17.071Z,16.08
2022-11-24T19:21:44.314Z,15.25
2022-11-24T19:24:11.722Z,18.40
2022-11-24T19:26:38.954Z,17.48
2022-11-24T19:29:06.475Z,17.52
2022-11-24T19:31:34.095Z,17.15
2022-11-24T19:34:03.113Z,15.75
2022-11-24T19:36:30.504Z,17.33
2022-11-24T19:38:57.939Z,19.83
2022-11-24T19:41:29.537Z,18.42
2022-11-24T19:43:58.037Z,19.27
2022-11-24T19:46:27.328Z,17.67
2022-11-24T19:48:56.152Z,17.67
2022-11-24T19:51:28.129Z,19.13
2022-11-24T19:53:55.070Z,18.75
2022-11-24T19:56:23.299Z,24.55
2022-11-24T19:58:50.497Z,18.70
2022-11-24T20:01:21.068Z,20.60
2022-11-24T20:03:49.607Z,21.98
2022-11-24T20:06:16.580Z,19.73
2022-11-24T20:08:45.283Z,20.42
2022-11-24T20:11:14.277Z,21.13
2022-11-24T20:13:41.898Z,23.33
2022-11-24T20:16:16.401Z,19.65
2022-11-24T20:18:44.575Z,22.52
2022-11-24T20:21:16.212Z,17.58
2022-11-24T20:26:12.692Z,22.83
2022-11-24T20:28:39.999Z,21.20
2022-11-24T20:31:17.886Z,19.15
2022-11-24T20:33:45.470Z,21.38
2022-11-24T20:36:14.287Z,18.58
2022-11-24T20:38:41.610Z,23.98
2022-11-24T20:41:16.176Z,19.65
2022-11-24T20:43:43.482Z,22.38
2022-11-24T20:46:11.595Z,19.45
2022-11-24T20:48:38.738Z,21.77
2022-11-24T20:51:07.491Z,19.48
2022-11-24T20:53:34.573Z,19.42
2022-11-24T20:56:06.763Z,22.08
2022-11-24T20:58:34.706Z,23.15
2022-11-24T21:01:12.166Z,16.55
2022-11-24T21:03:43.084Z,17.70
2022-11-24T21:06:11.764Z,25.85
2022-11-24T21:08:39.571Z,38.08
2022-11-24T21:11:06.853Z,37.83
2022-11-24T21:13:34.391Z,78.80
2022-11-24T21:16:10.898Z,22.73
2022-11-24T21:18:37.972Z,22.38
2022-11-24T21:21:05.060Z,27.98
2022-11-24T21:23:32.126Z,18.65
2022-11-24T21:26:05.583Z,24.58
2022-11-24T21:28:33.323Z,23.13
2022-11-24T21:31:07.650Z,22.50
2022-11-24T21:33:34.924Z,18.70
2022-11-24T21:36:03.073Z,16.17
2022-11-24T21:38:30.063Z,17.77
2022-11-24T21:41:04.322Z,20.55
2022-11-24T21:43:31.305Z,19.75
2022-11-24T21:46:08.031Z,19.55
2022-11-24T21:48:35.623Z,22.33
2022-11-24T21:51:03.642Z,17.00
2022-11-24T21:53:32.947Z,21.30
2022-11-24T21:56:01.695Z,19.65
2022-11-24T21:58:29.882Z,16.45
2022-11-24T22:01:05.571Z,18.02
2022-11-24T22:03:32.579Z,17.38
2022-11-24T22:05:59.986Z,15.70
2022-11-24T22:08:28.345Z,16.65
2022-11-24T22:11:00.957Z,17.08
2022-11-24T22:13:28.042Z,20.30
2022-11-24T22:16:14.344Z,16.02
2022-11-24T22:18:42.190Z,17.83
2022-11-24T22:21:11.513Z,15.73
2022-11-24T22:23:38.545Z,14.80
2022-11-24T22:26:15.715Z,19.13
2022-11-24T22:28:43.233Z,18.05
2022-11-24T22:31:12.628Z,13.07
2022-11-24T22:33:39.731Z,18.02
2022-11-24T22:36:07.303Z,23.48
2022-11-24T22:38:34.569Z,17.35
2022-11-24T22:41:02.800Z,18.40
2022-11-24T22:43:33.732Z,20.23
2022-11-24T22:46:05.415Z,21.63
2022-11-24T22:48:32.928Z,17.75
2022-11-24T22:51:04.316Z,20.05
2022-11-24T22:53:31.484Z,14.68
2022-11-24T22:56:11.314Z,19.80
2022-11-24T22:58:38.755Z,16.73
2022-11-24T23:01:09.333Z,18.95
2022-11-24T23:03:36.714Z,18.92
2022-11-24T23:06:05.264Z,19.50
2022-11-24T23:08:35.658Z,18.73
2022-11-24T23:11:04.399Z,15.80
2022-11-24T23:13:31.284Z,22.75
2022-11-24T23:16:11.516Z,16.70
2022-11-24T23:18:38.747Z,17.63
2022-11-24T23:21:11.061Z,19.70
2022-11-24T23:23:38.135Z,14.43
2022-11-24T23:26:09.886Z,20.20
2022-11-24T23:28:37.260Z,19.80
2022-11-24T23:31:05.419Z,18.17
2022-11-24T23:33:32.446Z,17.45
2022-11-24T23:36:03.900Z,18.10
2022-11-24T23:38:32.704Z,19.50
2022-11-24T23:41:00.808Z,18.75
2022-11-24T23:43:27.712Z,19.45
2022-11-24T23:45:54.741Z,20.02
2022-11-24T23:48:21.690Z,19.75
2022-11-24T23:50:48.627Z,21.10
2022-11-24T23:53:15.558Z,20.35
2022-11-24T23:55:42.523Z,18.20
2022-11-24T23:58:09.580Z,19.02
